Time;durP1;ratioP1;P1;durP2;ratioP2;P2;SDS_P1;SDS_P2;PMS_P1;PMS_P2;Temp;Humidity;BMP_temperature;BMP_pressure;BME280_temperature;BME280_humidity;BME280_pressure;Samples;Min_cycle;Max_cycle;Signal;HPM_P1;HPM_P2
2021/10/07 00:02:17;;;;;;;35.45;17.63;;;7.60;99.90;;;;;;5086260;28;20056;-67
2021/10/07 00:04:42;;;;;;;36.75;18.33;;;7.50;99.90;;;;;;5085865;28;20033;-66
2021/10/07 00:07:08;;;;;;;42.83;19.92;;;7.50;99.90;;;;;;5086071;28;20439;-66
2021/10/07 00:09:38;;;;;;;47.45;20.42;;;7.40;99.90;;;;;;5085290;28;20076;-66
2021/10/07 00:12:04;;;;;;;37.15;18.02;;;7.40;99.90;;;;;;5068652;28;20055;-67
2021/10/07 00:14:30;;;;;;;50.75;21.40;;;7.60;99.90;;;;;;5068058;28;20053;-66
2021/10/07 00:16:55;;;;;;;62.97;25.30;;;7.60;99.90;;;;;;5085715;28;20124;-66
2021/10/07 00:19:21;;;;;;;57.20;23.30;;;7.80;99.90;;;;;;5085817;28;20041;-66
2021/10/07 00:21:47;;;;;;;51.28;22.02;;;7.80;99.90;;;;;;5068557;28;20048;-66
2021/10/07 00:24:12;;;;;;;45.50;20.70;;;7.70;99.90;;;;;;5080406;28;20033;-66
2021/10/07 00:26:43;;;;;;;52.22;22.48;;;7.60;99.90;;;;;;5085090;28;20048;-66
2021/10/07 00:31:39;;;;;;;52.20;21.67;;;7.40;99.90;;;;;;5085971;28;20082;-66
2021/10/07 00:39:05;;;;;;;55.72;22.13;;;7.40;99.90;;;;;;5085575;28;20052;-66
2021/10/07 00:41:39;;;;;;;45.60;20.33;;;7.40;99.90;;;;;;5085012;28;20044;-66
2021/10/07 00:44:06;;;;;;;42.38;20.15;;;7.40;99.90;;;;;;5085027;28;20057;-66
2021/10/07 00:46:47;;;;;;;43.07;19.07;;;7.50;99.90;;;;;;5085316;28;20527;-66
2021/10/07 00:49:13;;;;;;;44.33;19.60;;;7.50;99.90;;;;;;5086632;28;20297;-66
2021/10/07 00:51:39;;;;;;;42.10;19.58;;;7.40;99.90;;;;;;5091057;28;20071;-66
2021/10/07 00:54:04;;;;;;;40.28;19.55;;;7.30;99.90;;;;;;5097861;28;20535;-66
2021/10/07 00:56:30;;;;;;;41.72;19.55;;;7.30;99.90;;;;;;5084858;28;20051;-66
2021/10/07 00:58:56;;;;;;;38.55;18.75;;;7.30;99.90;;;;;;5084804;28;20098;-67
2021/10/07 01:01:22;;;;;;;43.83;19.20;;;7.30;99.90;;;;;;5084752;28;20050;-66
2021/10/07 01:03:48;;;;;;;41.65;19.10;;;7.30;99.90;;;;;;5085556;28;20069;-66
2021/10/07 01:06:13;;;;;;;50.38;20.77;;;7.30;99.90;;;;;;5092691;28;20036;-66
2021/10/07 01:08:39;;;;;;;53.50;22.38;;;7.30;99.90;;;;;;5097454;28;20478;-66
2021/10/07 01:11:05;;;;;;;51.47;21.27;;;7.30;99.90;;;;;;5084540;28;20036;-66
2021/10/07 01:13:31;;;;;;;49.33;21.52;;;7.20;99.90;;;;;;5097435;28;20522;-66
2021/10/07 01:16:01;;;;;;;65.72;24.70;;;7.20;99.90;;;;;;5084675;28;20036;-66
2021/10/07 01:18:26;;;;;;;64.97;23.77;;;7.30;99.90;;;;;;5084829;28;20076;-66
2021/10/07 01:20:52;;;;;;;61.53;23.13;;;7.30;99.90;;;;;;5084305;28;20045;-66
2021/10/07 01:23:18;;;;;;;62.13;25.67;;;7.30;99.90;;;;;;5084454;28;20044;-66
2021/10/07 01:25:44;;;;;;;69.53;25.85;;;7.30;99.90;;;;;;5084117;28;20071;-66
2021/10/07 01:28:09;;;;;;;57.28;23.35;;;7.30;99.90;;;;;;5084512;28;20045;-66
2021/10/07 01:30:35;;;;;;;56.05;24.67;;;7.30;99.90;;;;;;5084443;28;20048;-66
2021/10/07 01:33:01;;;;;;;55.80;25.00;;;7.30;99.90;;;;;;5095890;28;20041;-66
2021/10/07 01:35:27;;;;;;;52.35;22.38;;;7.30;99.90;;;;;;5083953;28;20076;-66
2021/10/07 01:37:53;;;;;;;69.45;24.80;;;7.20;99.90;;;;;;5084629;28;20409;-66
2021/10/07 01:40:19;;;;;;;70.97;24.55;;;7.10;99.90;;;;;;5083994;28;20048;-66
2021/10/07 01:42:44;;;;;;;118.53;28.10;;;7.00;99.90;;;;;;5084360;28;20231;-66
2021/10/07 01:45:12;;;;;;;67.70;24.73;;;6.90;99.90;;;;;;5076599;28;20083;-66
2021/10/07 01:47:38;;;;;;;50.67;20.73;;;6.80;99.90;;;;;;5087966;28;20045;-66
2021/10/07 01:50:05;;;;;;;53.05;21.08;;;6.80;99.90;;;;;;5084233;28;20115;-66
2021/10/07 01:52:31;;;;;;;64.03;23.77;;;6.70;99.90;;;;;;5084297;28;20070;-66
2021/10/07 01:54:56;;;;;;;85.75;26.33;;;6.80;99.90;;;;;;5084194;28;20040;-66
2021/10/07 01:57:22;;;;;;;69.72;23.90;;;6.80;99.90;;;;;;5085317;28;20047;-66
2021/10/07 01:59:48;;;;;;;60.67;23.85;;;6.70;99.90;;;;;;5083624;28;20048;-66
2021/10/07 02:02:14;;;;;;;60.15;22.50;;;6.90;99.90;;;;;;5094606;28;20541;-66
2021/10/07 02:04:39;;;;;;;69.13;24.05;;;7.00;99.90;;;;;;5087145;28;20040;-66
2021/10/07 02:07:05;;;;;;;70.80;24.52;;;7.00;99.90;;;;;;5084566;28;20318;-65
2021/10/07 02:09:31;;;;;;;82.75;26.38;;;7.00;99.90;;;;;;5085360;28;20048;-67
2021/10/07 02:11:56;;;;;;;90.97;27.23;;;6.90;99.90;;;;;;5103331;28;20060;-65
2021/10/07 02:14:23;;;;;;;72.40;23.10;;;6.80;99.90;;;;;;5099176;28;20051;-67
2021/10/07 02:16:49;;;;;;;46.13;19.07;;;6.70;99.90;;;;;;5098382;28;20484;-66
2021/10/07 02:19:15;;;;;;;64.63;22.45;;;6.80;99.90;;;;;;5104877;28;20040;-66
2021/10/07 02:21:40;;;;;;;51.85;21.40;;;6.80;99.90;;;;;;5105015;28;20089;-67
2021/10/07 02:24:06;;;;;;;50.20;20.60;;;6.80;99.90;;;;;;5097975;28;20040;-66
2021/10/07 02:26:32;;;;;;;48.92;19.83;;;6.70;99.90;;;;;;5104075;28;20048;-66
2021/10/07 02:28:58;;;;;;;165.27;30.33;;;6.70;99.90;;;;;;5097018;28;20048;-66
2021/10/07 02:31:23;;;;;;;105.38;28.48;;;6.70;99.90;;;;;;5097910;28;20045;-66
2021/10/07 02:33:49;;;;;;;161.50;32.17;;;6.60;99.90;;;;;;5090045;28;20043;-66
2021/10/07 02:36:16;;;;;;;295.55;40.70;;;6.70;99.90;;;;;;5103060;28;20048;-66
2021/10/07 02:38:42;;;;;;;447.50;55.63;;;6.80;99.90;;;;;;5096219;28;20040;-66
2021/10/07 02:41:07;;;;;;;401.00;47.88;;;6.80;99.90;;;;;;5084293;28;20083;-67
2021/10/07 02:43:33;;;;;;;310.58;39.20;;;6.80;99.90;;;;;;5095360;28;20048;-66
2021/10/07 02:45:59;;;;;;;506.98;54.55;;;6.80;99.90;;;;;;5102770;28;20040;-66
2021/10/07 02:48:25;;;;;;;732.72;70.72;;;6.90;99.90;;;;;;5094856;28;20048;-66
2021/10/07 02:50:51;;;;;;;724.90;71.30;;;6.90;99.90;;;;;;5101600;28;20036;-66
2021/10/07 02:53:16;;;;;;;581.70;57.60;;;6.90;99.90;;;;;;5096240;28;20114;-66
2021/10/07 02:55:42;;;;;;;839.45;75.25;;;7.00;99.90;;;;;;5099411;28;20117;-67
2021/10/07 02:58:08;;;;;;;484.92;50.22;;;6.90;99.90;;;;;;5098373;28;20044;-66
2021/10/07 03:00:34;;;;;;;602.58;61.63;;;6.90;99.90;;;;;;5079239;28;20052;-66
2021/10/07 03:02:59;;;;;;;324.00;41.30;;;6.90;99.90;;;;;;5099832;28;20041;-66
2021/10/07 03:05:25;;;;;;;698.55;68.20;;;6.90;99.90;;;;;;5094985;28;20058;-66
2021/10/07 03:07:51;;;;;;;555.75;54.38;;;6.90;99.90;;;;;;5101635;28;20040;-66
2021/10/07 03:10:16;;;;;;;418.80;47.30;;;6.80;99.90;;;;;;5094231;28;20072;-66
2021/10/07 03:12:42;;;;;;;602.90;57.90;;;6.80;99.90;;;;;;5101833;28;20040;-65
2021/10/07 03:15:09;;;;;;;492.75;50.80;;;6.80;99.90;;;;;;5076148;28;20620;-66
2021/10/07 03:17:36;;;;;;;569.22;57.20;;;6.80;99.90;;;;;;5088681;28;20131;-66
2021/10/07 03:20:02;;;;;;;477.10;54.60;;;6.90;99.90;;;;;;5105353;28;20481;-66
2021/10/07 03:22:28;;;;;;;519.83;53.20;;;6.90;99.90;;;;;;5100566;28;20044;-65
2021/10/07 03:24:53;;;;;;;596.63;56.03;;;6.90;99.90;;;;;;5106437;28;20093;-65
2021/10/07 03:27:19;;;;;;;476.40;50.33;;;6.90;99.90;;;;;;5098564;28;20269;-65
2021/10/07 03:29:45;;;;;;;688.80;66.10;;;6.90;99.90;;;;;;5105222;28;20091;-65
2021/10/07 03:32:10;;;;;;;510.02;51.45;;;6.90;99.90;;;;;;5098387;28;20043;-65
2021/10/07 03:34:36;;;;;;;369.27;42.67;;;6.80;99.90;;;;;;5105303;28;20630;-65
2021/10/07 03:37:02;;;;;;;420.77;43.67;;;7.00;99.90;;;;;;5098016;28;20032;-65
2021/10/07 03:39:27;;;;;;;290.10;35.45;;;7.00;99.90;;;;;;5086705;28;20055;-65
2021/10/07 03:41:53;;;;;;;404.42;40.80;;;7.10;99.90;;;;;;5102763;28;20051;-65
2021/10/07 03:44:20;;;;;;;407.85;42.60;;;7.20;99.90;;;;;;5104761;28;20051;-65
2021/10/07 03:46:45;;;;;;;390.83;42.75;;;7.20;99.90;;;;;;5098213;28;20048;-65
2021/10/07 03:49:11;;;;;;;313.55;34.42;;;7.30;99.90;;;;;;5104973;28;20589;-65
2021/10/07 03:51:37;;;;;;;353.17;35.85;;;7.30;99.90;;;;;;5079198;28;20051;-65
2021/10/07 03:54:03;;;;;;;408.73;38.88;;;7.30;99.90;;;;;;5104783;28;20035;-65
2021/10/07 03:56:28;;;;;;;411.85;40.10;;;7.40;99.90;;;;;;5097014;28;20036;-65
2021/10/07 03:58:54;;;;;;;424.83;41.30;;;7.40;99.90;;;;;;5104474;28;20040;-65
2021/10/07 04:01:19;;;;;;;304.55;35.15;;;7.50;99.90;;;;;;5099444;28;20107;-65
2021/10/07 04:03:45;;;;;;;412.10;41.60;;;7.50;99.90;;;;;;5101575;28;20044;-65
2021/10/07 04:06:11;;;;;;;376.23;38.47;;;7.60;99.90;;;;;;5101370;28;20036;-65
2021/10/07 04:08:37;;;;;;;320.73;34.42;;;7.60;99.90;;;;;;5099132;28;20064;-66
2021/10/07 04:11:03;;;;;;;346.40;38.00;;;7.70;99.90;;;;;;5099019;28;20041;-65
2021/10/07 04:13:29;;;;;;;405.27;43.50;;;7.60;99.90;;;;;;5097354;28;20066;-65
2021/10/07 04:15:54;;;;;;;499.58;44.15;;;7.70;99.90;;;;;;5104528;28;20270;-65
2021/10/07 04:18:20;;;;;;;464.88;42.40;;;7.70;99.90;;;;;;5096965;28;20589;-66
2021/10/07 04:20:49;;;;;;;453.92;42.53;;;7.70;99.90;;;;;;5099574;28;20044;-66
2021/10/07 04:23:16;;;;;;;490.73;43.55;;;7.70;99.90;;;;;;5092605;28;20067;-66
2021/10/07 04:25:42;;;;;;;668.05;56.40;;;7.70;99.90;;;;;;5098870;28;20040;-65
2021/10/07 04:28:08;;;;;;;359.25;35.70;;;7.60;99.90;;;;;;5091340;28;20402;-66
2021/10/07 04:30:35;;;;;;;683.53;59.22;;;7.60;99.90;;;;;;5098467;28;20080;-65
2021/10/07 04:33:11;;;;;;;481.15;42.53;;;7.60;99.90;;;;;;5103524;28;20040;-65
2021/10/07 04:35:38;;;;;;;433.15;39.90;;;7.50;99.90;;;;;;5097760;28;20526;-66
2021/10/07 04:38:04;;;;;;;441.83;38.95;;;7.50;99.90;;;;;;5104777;28;20092;-65
2021/10/07 04:40:31;;;;;;;433.27;42.20;;;7.50;99.90;;;;;;5096979;28;20085;-65
2021/10/07 04:42:57;;;;;;;390.27;38.65;;;7.50;99.90;;;;;;5104821;28;20055;-65
2021/10/07 04:45:23;;;;;;;537.00;47.95;;;7.60;99.90;;;;;;5097866;28;20083;-65
2021/10/07 04:47:49;;;;;;;661.83;57.33;;;7.60;99.90;;;;;;5089361;28;20381;-65
2021/10/07 04:50:15;;;;;;;442.40;37.10;;;7.60;99.90;;;;;;5095985;28;20051;-65
2021/10/07 04:52:40;;;;;;;682.45;56.42;;;7.60;99.90;;;;;;5104734;28;20071;-65
2021/10/07 04:55:07;;;;;;;337.70;33.80;;;7.60;99.90;;;;;;5096857;28;20466;-65
2021/10/07 04:57:33;;;;;;;206.52;26.63;;;7.70;99.90;;;;;;5104122;28;20055;-65
2021/10/07 04:59:59;;;;;;;341.92;31.65;;;7.80;99.90;;;;;;5078282;28;20068;-65
2021/10/07 05:02:25;;;;;;;468.75;40.25;;;7.70;99.90;;;;;;5097868;28;20047;-65
2021/10/07 05:04:51;;;;;;;456.63;41.58;;;7.80;99.90;;;;;;5098270;28;20040;-65
2021/10/07 05:07:16;;;;;;;670.55;55.42;;;7.80;99.90;;;;;;5102434;28;20043;-65
2021/10/07 05:09:42;;;;;;;485.70;45.60;;;7.90;99.90;;;;;;5099492;28;20032;-65
2021/10/07 05:12:08;;;;;;;481.13;39.55;;;7.90;99.90;;;;;;5081591;28;20043;-65
2021/10/07 05:14:33;;;;;;;548.03;41.25;;;7.90;99.90;;;;;;5101718;28;20040;-65
2021/10/07 05:16:59;;;;;;;495.35;39.20;;;7.90;99.90;;;;;;5098053;28;20051;-65
2021/10/07 05:19:25;;;;;;;444.75;40.33;;;8.00;99.90;;;;;;5103310;28;20051;-66
2021/10/07 05:21:51;;;;;;;430.30;36.38;;;8.10;99.90;;;;;;5100557;28;20066;-66
2021/10/07 05:24:16;;;;;;;361.10;33.78;;;8.20;99.90;;;;;;5099282;28;20099;-66
2021/10/07 05:26:42;;;;;;;540.83;38.67;;;8.30;99.90;;;;;;5091362;28;20040;-66
2021/10/07 05:29:08;;;;;;;198.75;16.80;;;8.20;99.90;;;;;;5098937;28;20043;-65
2021/10/07 05:31:33;;;;;;;512.05;35.95;;;8.10;99.90;;;;;;5091020;28;20044;-66
2021/10/07 05:33:59;;;;;;;407.08;28.02;;;8.00;99.90;;;;;;5097651;28;20103;-65
2021/10/07 05:36:25;;;;;;;429.88;29.05;;;7.90;99.90;;;;;;5090200;28;20087;-66
2021/10/07 05:38:51;;;;;;;317.38;28.45;;;7.90;99.90;;;;;;5097802;28;20036;-66
2021/10/07 05:41:17;;;;;;;486.55;31.83;;;7.80;99.90;;;;;;5089928;28;20052;-66
2021/10/07 05:43:42;;;;;;;325.95;26.13;;;7.80;99.90;;;;;;5097530;28;20063;-66
2021/10/07 05:46:08;;;;;;;351.80;27.02;;;7.80;99.90;;;;;;5091679;28;20048;-65
2021/10/07 05:48:36;;;;;;;390.83;29.38;;;7.70;99.90;;;;;;5095721;28;20044;-65
2021/10/07 05:51:02;;;;;;;338.17;26.70;;;7.70;99.90;;;;;;5074580;28;20087;-66
2021/10/07 05:53:27;;;;;;;406.08;30.00;;;7.80;99.90;;;;;;5094585;28;20086;-66
2021/10/07 05:55:53;;;;;;;395.73;35.35;;;7.70;99.90;;;;;;5094672;28;20036;-65
2021/10/07 05:58:19;;;;;;;349.52;30.38;;;7.70;99.90;;;;;;5090722;28;20136;-66
2021/10/07 06:00:44;;;;;;;305.73;28.73;;;7.60;99.90;;;;;;5083767;28;20510;-66
2021/10/07 06:03:11;;;;;;;302.92;29.27;;;7.70;99.90;;;;;;5082029;28;20341;-66
2021/10/07 06:05:38;;;;;;;366.85;31.25;;;7.70;99.90;;;;;;5080755;28;20047;-66
2021/10/07 06:08:05;;;;;;;489.13;35.58;;;7.70;99.90;;;;;;5090527;28;20064;-66
2021/10/07 06:10:30;;;;;;;442.40;36.70;;;7.70;99.90;;;;;;5099745;28;20052;-66
2021/10/07 06:12:56;;;;;;;432.90;35.50;;;7.70;99.90;;;;;;5100863;28;20051;-66
2021/10/07 06:15:25;;;;;;;304.42;26.33;;;7.80;99.90;;;;;;5098175;28;20522;-66
2021/10/07 06:17:51;;;;;;;331.67;27.33;;;7.80;99.90;;;;;;5084429;28;20036;-66
2021/10/07 06:20:35;;;;;;;470.77;35.10;;;7.80;99.90;;;;;;5074495;28;20052;-66
2021/10/07 06:23:04;;;;;;;392.13;30.15;;;7.70;99.90;;;;;;5099379;28;20047;-66
2021/10/07 06:25:30;;;;;;;448.90;35.72;;;7.80;99.90;;;;;;5092416;28;20462;-66
2021/10/07 06:27:56;;;;;;;219.73;21.73;;;7.80;99.90;;;;;;5081425;28;20070;-66
2021/10/07 06:30:22;;;;;;;389.80;29.33;;;7.90;99.90;;;;;;5073810;28;20044;-66
2021/10/07 06:32:49;;;;;;;460.38;32.83;;;7.80;99.90;;;;;;5098800;28;20105;-65
2021/10/07 06:35:16;;;;;;;436.55;30.65;;;7.80;99.90;;;;;;5090502;28;20039;-66
2021/10/07 06:37:42;;;;;;;346.25;28.98;;;7.90;99.90;;;;;;5098096;28;20044;-65
2021/10/07 06:40:09;;;;;;;322.05;27.92;;;7.90;99.90;;;;;;5090225;28;20174;-66
2021/10/07 06:42:35;;;;;;;300.60;25.55;;;7.90;99.90;;;;;;5097610;28;20456;-66
2021/10/07 06:45:04;;;;;;;276.20;25.58;;;7.90;99.90;;;;;;5090585;28;20472;-66
2021/10/07 06:47:30;;;;;;;264.73;27.75;;;7.90;99.90;;;;;;5097787;28;20100;-65
2021/10/07 06:49:56;;;;;;;340.20;32.38;;;8.00;99.90;;;;;;5071970;28;20079;-65
2021/10/07 06:52:22;;;;;;;436.80;34.53;;;8.00;99.90;;;;;;5097575;28;20055;-66
2021/10/07 06:54:47;;;;;;;330.20;29.27;;;8.00;99.90;;;;;;5089642;28;20047;-66
2021/10/07 06:57:13;;;;;;;326.77;30.60;;;8.10;99.90;;;;;;5096821;28;20427;-66
2021/10/07 06:59:39;;;;;;;423.67;31.10;;;8.10;99.90;;;;;;5092587;28;20372;-66
2021/10/07 07:02:04;;;;;;;384.70;32.75;;;8.10;99.90;;;;;;5097186;28;20158;-66
2021/10/07 07:04:30;;;;;;;394.90;27.88;;;8.10;99.90;;;;;;5079276;28;20056;-66
2021/10/07 07:06:56;;;;;;;435.45;32.33;;;8.10;99.90;;;;;;5095689;28;20048;-66
2021/10/07 07:09:21;;;;;;;477.90;31.35;;;8.10;99.90;;;;;;5084427;28;20060;-65
2021/10/07 07:11:47;;;;;;;358.23;28.77;;;8.10;99.90;;;;;;5088683;28;20299;-66
2021/10/07 07:14:13;;;;;;;351.00;27.35;;;8.10;99.90;;;;;;5106386;28;20036;-64
2021/10/07 07:16:39;;;;;;;451.45;33.00;;;8.20;99.90;;;;;;5102054;28;20468;-65
2021/10/07 07:19:05;;;;;;;433.15;29.63;;;8.10;99.90;;;;;;5100418;28;20076;-65
2021/10/07 07:21:33;;;;;;;433.83;30.60;;;8.10;99.90;;;;;;5103134;28;20040;-65
2021/10/07 07:24:00;;;;;;;350.95;29.27;;;8.10;99.90;;;;;;5096994;28;20082;-65
2021/10/07 07:26:27;;;;;;;211.93;21.63;;;8.10;99.90;;;;;;5102732;28;20073;-65
2021/10/07 07:28:53;;;;;;;203.75;23.48;;;8.20;99.90;;;;;;5096343;28;20040;-65
2021/10/07 07:31:21;;;;;;;203.70;23.48;;;8.30;99.90;;;;;;5100834;28;20032;-65
2021/10/07 07:33:47;;;;;;;274.00;29.08;;;8.40;99.90;;;;;;5107130;28;20051;-65
2021/10/07 07:36:16;;;;;;;399.52;34.88;;;8.40;99.90;;;;;;5101712;28;20043;-65
2021/10/07 07:38:42;;;;;;;262.70;28.40;;;8.50;99.90;;;;;;5076603;28;20040;-65
2021/10/07 07:41:10;;;;;;;317.77;29.42;;;8.50;99.90;;;;;;5101194;28;20049;-64
2021/10/07 07:43:38;;;;;;;483.77;35.90;;;8.70;99.90;;;;;;5076230;28;20414;-65
2021/10/07 07:46:04;;;;;;;377.67;32.65;;;8.70;99.90;;;;;;5101434;28;20032;-66
2021/10/07 07:48:29;;;;;;;196.93;26.10;;;8.80;99.90;;;;;;5093927;28;20634;-66
2021/10/07 07:50:55;;;;;;;357.50;30.35;;;8.90;99.90;;;;;;5103148;28;20044;-66
2021/10/07 07:53:21;;;;;;;331.13;28.15;;;8.80;99.90;;;;;;5093765;28;20036;-66
2021/10/07 07:55:47;;;;;;;333.77;28.40;;;8.90;99.90;;;;;;5100701;28;20051;-66
2021/10/07 07:58:13;;;;;;;324.38;26.25;;;8.80;99.90;;;;;;5093927;28;20044;-67
2021/10/07 08:00:39;;;;;;;152.13;20.08;;;8.90;99.90;;;;;;5086406;28;20509;-66
2021/10/07 08:03:05;;;;;;;197.32;21.08;;;8.90;99.90;;;;;;5070265;28;20495;-66
2021/10/07 08:05:31;;;;;;;226.63;22.02;;;8.90;99.90;;;;;;5085467;28;20076;-65
2021/10/07 08:07:57;;;;;;;236.65;21.58;;;8.90;99.90;;;;;;5079090;28;20040;-66
2021/10/07 08:10:23;;;;;;;261.35;22.25;;;9.00;99.90;;;;;;5095823;28;20504;-66
2021/10/07 08:12:49;;;;;;;293.30;24.70;;;8.90;99.90;;;;;;5097842;28;20049;-66
2021/10/07 08:15:15;;;;;;;258.98;24.58;;;9.00;99.90;;;;;;5094246;28;20048;-66
2021/10/07 08:17:41;;;;;;;256.80;21.98;;;9.00;99.90;;;;;;5103080;28;20043;-66
2021/10/07 08:20:12;;;;;;;347.50;29.63;;;9.00;99.90;;;;;;5101223;28;20051;-66
2021/10/07 08:22:39;;;;;;;203.35;21.67;;;9.00;99.90;;;;;;5097843;28;20045;-66
2021/10/07 08:25:06;;;;;;;283.10;25.25;;;9.00;99.90;;;;;;5101918;28;20071;-66
2021/10/07 08:27:32;;;;;;;291.60;24.15;;;9.00;99.90;;;;;;5096629;28;20525;-66
2021/10/07 08:29:58;;;;;;;370.45;25.75;;;9.00;99.90;;;;;;5103059;28;20036;-65
2021/10/07 08:32:25;;;;;;;147.77;15.82;;;9.10;99.90;;;;;;5095976;28;20067;-65
2021/10/07 08:34:51;;;;;;;217.88;21.10;;;9.10;99.90;;;;;;5084137;28;20119;-65
2021/10/07 08:37:17;;;;;;;148.63;18.90;;;9.10;99.90;;;;;;5095613;28;20074;-65
2021/10/07 08:39:43;;;;;;;110.97;15.00;;;9.20;99.90;;;;;;5101002;28;20044;-66
2021/10/07 08:42:09;;;;;;;131.25;16.73;;;9.30;99.90;;;;;;5076329;28;20458;-66
2021/10/07 08:44:35;;;;;;;177.32;18.33;;;9.30;99.90;;;;;;5101507;28;20185;-65
2021/10/07 08:47:00;;;;;;;138.95;17.70;;;9.30;99.90;;;;;;5094562;28;20036;-65
2021/10/07 08:49:32;;;;;;;104.88;16.67;;;9.30;99.90;;;;;;5101296;28;20108;-66
2021/10/07 08:51:57;;;;;;;164.55;19.70;;;9.40;99.90;;;;;;5093957;28;20112;-66
2021/10/07 08:54:23;;;;;;;159.05;19.35;;;9.30;99.90;;;;;;5100789;28;20040;-65
2021/10/07 08:56:49;;;;;;;132.10;16.45;;;9.40;99.90;;;;;;5093395;28;20036;-66
2021/10/07 08:59:16;;;;;;;209.32;20.45;;;9.40;99.90;;;;;;5100726;28;20032;-66
2021/10/07 09:01:47;;;;;;;121.97;17.67;;;9.40;99.90;;;;;;5092020;28;20420;-66
2021/10/07 09:04:19;;;;;;;104.22;18.00;;;9.40;99.90;;;;;;5100355;28;20042;-66
2021/10/07 09:06:46;;;;;;;137.20;17.92;;;9.70;99.90;;;;;;5093035;28;20056;-66
2021/10/07 09:09:12;;;;;;;93.07;17.75;;;9.70;99.90;;;;;;5081759;28;20074;-66
2021/10/07 09:11:38;;;;;;;78.55;16.15;;;9.80;99.90;;;;;;5093323;28;20044;-66
2021/10/07 09:14:06;;;;;;;119.95;18.98;;;9.80;99.90;;;;;;5098265;28;20036;-65
2021/10/07 09:16:48;;;;;;;65.25;15.07;;;9.80;99.90;;;;;;5095447;28;20052;-64
2021/10/07 09:19:19;;;;;;;66.32;16.50;;;9.70;99.90;;;;;;5094335;28;20039;-65
2021/10/07 09:21:48;;;;;;;72.45;17.52;;;9.90;99.90;;;;;;5102651;28;20134;-67
2021/10/07 09:24:44;;;;;;;73.22;16.02;;;10.00;99.90;;;;;;5095487;28;20033;-65
2021/10/07 09:27:19;;;;;;;41.85;13.25;;;10.10;99.90;;;;;;5102340;28;20044;-65
2021/10/07 09:29:56;;;;;;;49.92;14.73;;;10.00;99.90;;;;;;5092861;28;20108;-65
2021/10/07 09:32:24;;;;;;;69.82;13.45;;;10.00;99.90;;;;;;5078204;28;20127;-65
2021/10/07 09:34:50;;;;;;;43.40;11.73;;;10.00;99.90;;;;;;5094566;28;20036;-65
2021/10/07 09:37:17;;;;;;;71.20;13.60;;;9.90;99.90;;;;;;5083782;28;20047;-65
2021/10/07 09:39:58;;;;;;;40.50;12.82;;;10.00;99.90;;;;;;5093905;28;20048;-65
2021/10/07 09:42:33;;;;;;;64.82;14.02;;;10.10;99.90;;;;;;5100823;28;20081;-66
2021/10/07 09:45:01;;;;;;;49.35;11.98;;;10.10;99.90;;;;;;5094139;28;20046;-65
2021/10/07 09:47:32;;;;;;;34.22;11.57;;;10.20;99.90;;;;;;5101580;28;20044;-65
2021/10/07 09:50:18;;;;;;;35.15;11.05;;;10.40;99.90;;;;;;5093471;28;20041;-65
2021/10/07 09:52:46;;;;;;;60.70;13.95;;;10.30;99.90;;;;;;5101130;28;20044;-65
2021/10/07 09:55:24;;;;;;;50.72;12.80;;;10.40;99.90;;;;;;5093245;28;20043;-65
2021/10/07 09:57:57;;;;;;;45.00;13.77;;;10.30;99.90;;;;;;5089899;28;20052;-65
2021/10/07 10:00:26;;;;;;;36.28;12.80;;;10.50;99.90;;;;;;5090959;28;20048;-65
2021/10/07 10:02:54;;;;;;;39.85;13.25;;;10.60;99.90;;;;;;5096953;28;20251;-65
2021/10/07 10:05:20;;;;;;;45.67;14.38;;;10.60;99.90;;;;;;5093040;28;20346;-65
2021/10/07 10:07:46;;;;;;;41.78;14.70;;;10.60;99.90;;;;;;5100611;28;20040;-65
2021/10/07 10:10:13;;;;;;;29.83;13.88;;;10.90;99.90;;;;;;5092943;28;20047;-65
2021/10/07 10:12:39;;;;;;;25.77;13.18;;;11.00;99.90;;;;;;5100165;28;20036;-65
2021/10/07 10:15:07;;;;;;;24.40;11.93;;;11.10;99.90;;;;;;5093752;28;20107;-65
2021/10/07 10:17:34;;;;;;;29.30;15.13;;;11.00;99.90;;;;;;5099196;28;20063;-65
2021/10/07 10:20:01;;;;;;;24.13;12.98;;;11.10;99.90;;;;;;5083972;28;20048;-65
2021/10/07 10:22:28;;;;;;;27.20;13.38;;;11.40;99.90;;;;;;5095831;28;20451;-66
2021/10/07 10:24:54;;;;;;;25.35;12.05;;;11.60;99.90;;;;;;5096508;28;20041;-66
2021/10/07 10:27:20;;;;;;;21.67;12.23;;;11.50;99.90;;;;;;5089392;28;20072;-65
2021/10/07 10:29:46;;;;;;;19.90;12.07;;;11.40;99.90;;;;;;5099932;28;20040;-65
2021/10/07 10:32:12;;;;;;;21.05;13.32;;;11.30;99.90;;;;;;5102399;28;20043;-65
2021/10/07 10:34:41;;;;;;;17.95;11.70;;;11.30;99.90;;;;;;5101644;28;20108;-65
2021/10/07 10:37:09;;;;;;;19.05;12.48;;;11.40;99.90;;;;;;5104674;28;20068;-65
2021/10/07 10:39:37;;;;;;;;;;;11.50;99.90;;;;;;5100435;28;20083;-65
2021/10/07 10:42:15;;;;;;;20.13;13.40;;;11.60;99.90;;;;;;5106165;28;19920;-65
2021/10/07 10:44:47;;;;;;;20.23;13.40;;;11.40;99.90;;;;;;5099628;28;20060;-65
2021/10/07 10:47:12;;;;;;;18.08;12.23;;;11.50;99.90;;;;;;5105207;28;20044;-65
2021/10/07 10:50:00;;;;;;;30.48;14.27;;;11.60;99.90;;;;;;5087696;28;20049;-66
2021/10/07 10:52:33;;;;;;;22.55;13.75;;;11.80;99.90;;;;;;5092887;28;20056;-65
2021/10/07 10:55:04;;;;;;;20.25;13.30;;;11.80;99.90;;;;;;5100092;28;20036;-66
2021/10/07 10:57:37;;;;;;;31.08;16.92;;;11.80;99.90;;;;;;5099539;28;20090;-65
2021/10/07 11:00:06;;;;;;;23.08;14.70;;;12.00;99.90;;;;;;5099601;28;20404;-66
2021/10/07 11:02:31;;;;;;;19.55;13.43;;;11.90;99.90;;;;;;5104232;28;20141;-65
2021/10/07 11:04:58;;;;;;;26.20;16.58;;;12.00;99.90;;;;;;5098538;28;20047;-65
2021/10/07 11:07:35;;;;;;;24.33;15.00;;;12.10;99.90;;;;;;5088198;28;20438;-65
2021/10/07 11:10:07;;;;;;;24.53;15.87;;;12.30;99.90;;;;;;5098319;28;20384;-65
2021/10/07 11:12:45;;;;;;;23.15;14.00;;;12.30;99.90;;;;;;5091173;28;20290;-65
2021/10/07 11:15:11;;;;;;;21.98;14.48;;;12.40;99.90;;;;;;5079884;28;20083;-65
2021/10/07 11:17:42;;;;;;;27.15;13.93;;;12.50;99.90;;;;;;5087189;28;20048;-65
2021/10/07 11:20:21;;;;;;;22.50;14.43;;;12.30;99.90;;;;;;5093811;28;20048;-66
2021/10/07 11:23:25;;;;;;;23.50;14.05;;;12.40;99.90;;;;;;5101144;28;20055;-66
2021/10/07 11:25:53;;;;;;;24.38;14.27;;;12.50;99.90;;;;;;5043668;28;20052;-66
2021/10/07 11:28:34;;;;;;;20.38;14.13;;;12.40;99.90;;;;;;5057667;28;20050;-65
2021/10/07 11:31:08;;;;;;;23.10;14.60;;;12.60;99.90;;;;;;5050175;28;20060;-65
2021/10/07 11:33:36;;;;;;;22.35;15.48;;;12.40;99.90;;;;;;5032333;28;20110;-65
2021/10/07 11:36:07;;;;;;;25.48;15.00;;;12.40;99.90;;;;;;5049628;28;20052;-65
2021/10/07 11:38:37;;;;;;;22.48;15.00;;;12.50;99.90;;;;;;5043873;28;20051;-65
2021/10/07 11:41:03;;;;;;;21.67;15.15;;;12.60;99.90;;;;;;5049192;28;20045;-66
2021/10/07 11:43:31;;;;;;;21.05;15.60;;;12.70;99.90;;;;;;5061178;28;20052;-65
2021/10/07 11:46:02;;;;;;;19.88;15.02;;;12.80;99.90;;;;;;5058312;28;20096;-65
2021/10/07 11:48:28;;;;;;;22.60;15.00;;;12.70;99.90;;;;;;5055321;28;20041;-65
2021/10/07 11:51:03;;;;;;;20.15;13.93;;;12.90;99.90;;;;;;5049152;28;20057;-65
2021/10/07 11:53:34;;;;;;;22.90;15.15;;;12.70;99.90;;;;;;5042491;28;20055;-65
2021/10/07 11:56:03;;;;;;;21.70;15.43;;;12.70;99.90;;;;;;5070524;28;20048;-65
2021/10/07 11:58:30;;;;;;;24.58;15.40;;;12.80;99.90;;;;;;5083503;28;20058;-65
2021/10/07 12:00:58;;;;;;;21.30;15.10;;;12.80;99.90;;;;;;5091757;28;20504;-65
2021/10/07 12:03:27;;;;;;;21.52;14.57;;;12.80;99.90;;;;;;5099532;28;20384;-65
2021/10/07 12:06:02;;;;;;;19.38;14.63;;;13.00;99.90;;;;;;5086244;28;20051;-65
2021/10/07 12:08:31;;;;;;;18.98;14.90;;;13.10;99.90;;;;;;5081083;28;20078;-65
2021/10/07 12:11:00;;;;;;;21.50;14.45;;;13.20;99.90;;;;;;5100317;28;20041;-65
2021/10/07 12:13:29;;;;;;;21.40;15.02;;;13.10;99.90;;;;;;5099226;28;20048;-65
2021/10/07 12:15:58;;;;;;;20.13;14.35;;;13.10;99.90;;;;;;5105360;28;20036;-65
2021/10/07 12:18:25;;;;;;;22.33;14.95;;;13.10;99.90;;;;;;5097916;28;20324;-65
2021/10/07 12:21:01;;;;;;;21.48;15.23;;;13.00;99.90;;;;;;5086069;28;20051;-65
2021/10/07 12:23:27;;;;;;;19.83;14.40;;;13.30;99.90;;;;;;5105907;28;20078;-65
2021/10/07 12:25:56;;;;;;;20.77;15.93;;;13.50;99.90;;;;;;5100109;28;20099;-65
2021/10/07 12:28:22;;;;;;;19.42;13.98;;;13.30;99.90;;;;;;5092496;28;20109;-65
2021/10/07 12:31:03;;;;;;;21.20;15.88;;;13.60;99.90;;;;;;5098973;28;20044;-67
2021/10/07 12:33:31;;;;;;;21.02;15.43;;;13.50;99.90;;;;;;5092229;28;20087;-65
2021/10/07 12:36:02;;;;;;;20.45;15.20;;;13.80;99.90;;;;;;5099115;28;20149;-65
2021/10/07 12:38:29;;;;;;;23.38;15.60;;;13.70;99.90;;;;;;5092252;28;20127;-65